createdAt,value
2022-10-28T00:01:37.257Z,5.80
2022-10-28T00:06:33.530Z,10.73
2022-10-28T00:11:28.528Z,6.72
2022-10-28T00:16:25.288Z,6.93
2022-10-28T00:21:21.275Z,5.97
2022-10-28T00:26:16.985Z,6.00
2022-10-28T00:31:12.610Z,6.15
2022-10-28T00:36:12.478Z,7.90
2022-10-28T00:41:06.365Z,5.10
2022-10-28T00:45:59.788Z,8.80
2022-10-28T00:50:53.172Z,8.75
2022-10-28T00:55:50.077Z,9.02
2022-10-28T01:00:46.697Z,9.30
2022-10-28T01:05:42.936Z,11.65
2022-10-28T01:11:01.258Z,9.82
2022-10-28T01:16:02.477Z,9.35
2022-10-28T01:21:30.711Z,8.75
2022-10-28T01:26:57.725Z,10.23
2022-10-28T01:31:56.291Z,10.40
2022-10-28T01:36:58.857Z,12.35
2022-10-28T01:41:57.729Z,9.10
2022-10-28T01:47:00.160Z,9.15
2022-10-28T01:51:57.140Z,12.27
2022-10-28T01:56:51.644Z,9.38
2022-10-28T02:01:45.102Z,8.23
2022-10-28T02:06:42.377Z,8.07
2022-10-28T02:11:52.589Z,8.35
2022-10-28T02:16:51.476Z,14.25
2022-10-28T02:21:56.666Z,11.27
2022-10-28T02:26:56.214Z,9.63
2022-10-28T02:31:53.240Z,11.73
2022-10-28T02:36:53.598Z,13.43
2022-10-28T02:41:51.923Z,36.80
2022-10-28T02:46:50.940Z,34.08
2022-10-28T02:51:47.385Z,19.13
2022-10-28T02:56:48.648Z,18.58
2022-10-28T03:01:42.045Z,16.15
2022-10-28T03:06:35.558Z,15.75
2022-10-28T03:11:28.893Z,13.60
2022-10-28T03:16:23.388Z,15.38
2022-10-28T03:21:16.554Z,16.15
2022-10-28T03:26:17.262Z,17.05
2022-10-28T03:31:11.341Z,17.08
2022-10-28T03:36:06.327Z,13.02
2022-10-28T03:40:59.569Z,12.43
2022-10-28T03:45:52.682Z,14.75
2022-10-28T03:50:45.777Z,15.70
2022-10-28T03:55:40.461Z,16.05
2022-10-28T04:00:33.627Z,12.27
2022-10-28T04:05:28.988Z,12.05
2022-10-28T04:10:22.248Z,15.55
2022-10-28T04:15:17.129Z,14.00
2022-10-28T04:20:11.217Z,17.23
2022-10-28T04:25:04.763Z,18.33
2022-10-28T04:29:57.998Z,16.00
2022-10-28T04:34:52.685Z,16.25
2022-10-28T04:39:45.844Z,15.82
2022-10-28T04:44:59.354Z,18.15
2022-10-28T04:49:54.227Z,19.45
2022-10-28T04:54:47.398Z,11.23
2022-10-28T04:59:42.650Z,23.20
2022-10-28T05:04:35.780Z,16.42
2022-10-28T05:09:31.732Z,22.45
2022-10-28T05:14:25.041Z,17.70
2022-10-28T05:19:18.211Z,18.98
2022-10-28T05:24:11.591Z,17.77
2022-10-28T05:29:06.451Z,15.93
2022-10-28T05:33:59.697Z,17.88
2022-10-28T05:38:52.919Z,20.17
2022-10-28T05:43:46.300Z,19.95
2022-10-28T05:48:40.870Z,20.65
2022-10-28T05:53:34.195Z,20.88
2022-10-28T05:58:27.374Z,18.42
2022-10-28T06:03:20.529Z,39.47
2022-10-28T06:08:15.437Z,49.30
2022-10-28T06:13:08.542Z,33.90
2022-10-28T06:18:01.997Z,22.55
2022-10-28T06:22:56.452Z,19.65
2022-10-28T06:27:54.634Z,24.50
2022-10-28T06:32:48.138Z,19.60
2022-10-28T06:37:41.420Z,17.98
2022-10-28T06:42:34.681Z,20.85
2022-10-28T06:47:31.816Z,22.92
2022-10-28T06:52:27.807Z,21.75
2022-10-28T06:57:22.757Z,26.70
2022-10-28T07:02:17.824Z,21.13
2022-10-28T07:07:12.588Z,19.52
2022-10-28T07:12:06.236Z,18.17
2022-10-28T07:16:59.416Z,21.50
2022-10-28T07:21:52.649Z,18.38
2022-10-28T07:26:50.293Z,16.73
2022-10-28T07:31:45.505Z,24.85
2022-10-28T07:36:39.060Z,29.20
2022-10-28T07:41:32.297Z,15.38
2022-10-28T07:46:27.015Z,17.05
2022-10-28T07:51:20.417Z,14.80
2022-10-28T07:56:14.832Z,14.85
2022-10-28T08:01:10.665Z,13.48
2022-10-28T08:06:07.971Z,12.63
2022-10-28T08:11:01.259Z,12.77
2022-10-28T08:15:55.131Z,10.27
2022-10-28T08:20:48.619Z,13.00
2022-10-28T08:25:50.736Z,13.45
2022-10-28T08:30:57.223Z,11.82
2022-10-28T08:35:59.284Z,11.93
2022-10-28T08:41:02.364Z,11.07
2022-10-28T08:46:02.863Z,8.85
2022-10-28T08:51:05.006Z,9.68
2022-10-28T08:56:08.540Z,7.25
2022-10-28T09:01:02.350Z,6.35
2022-10-28T09:06:01.513Z,5.95
2022-10-28T09:11:22.240Z,7.07
2022-10-28T09:16:26.891Z,5.97
2022-10-28T09:21:27.508Z,9.20
2022-10-28T09:26:30.324Z,7.72
2022-10-28T09:31:32.075Z,5.50
2022-10-28T09:36:31.501Z,6.30
2022-10-28T09:41:32.883Z,8.02
2022-10-28T09:46:34.723Z,6.82
2022-10-28T09:51:35.643Z,7.28
2022-10-28T09:56:31.745Z,9.07
2022-10-28T10:01:25.181Z,7.70
2022-10-28T10:06:20.718Z,7.53
2022-10-28T10:11:23.290Z,9.60
2022-10-28T10:16:27.912Z,8.63
2022-10-28T10:21:42.240Z,8.40
2022-10-28T10:26:36.609Z,7.40
2022-10-28T10:31:31.329Z,10.73
2022-10-28T10:36:28.880Z,10.27
2022-10-28T10:41:39.914Z,8.50
2022-10-28T10:46:34.749Z,9.05
2022-10-28T10:51:30.177Z,6.00
2022-10-28T10:56:27.536Z,6.40
2022-10-28T11:01:23.210Z,7.53
2022-10-28T11:06:24.943Z,7.40
2022-10-28T11:11:22.708Z,4.72
2022-10-28T11:16:25.137Z,6.57
2022-10-28T11:21:49.673Z,5.85
2022-10-28T11:26:53.550Z,5.20
2022-10-28T11:32:25.413Z,5.22
2022-10-28T11:37:32.096Z,11.90
2022-10-28T11:42:36.133Z,6.78
2022-10-28T11:47:43.488Z,5.80
2022-10-28T11:52:56.349Z,4.95
2022-10-28T11:58:03.816Z,5.20
2022-10-28T12:03:13.790Z,6.55
2022-10-28T12:13:21.514Z,8.25
2022-10-28T12:18:21.609Z,7.50
2022-10-28T12:23:19.744Z,6.20
2022-10-28T12:28:20.993Z,7.28
2022-10-28T12:33:18.702Z,6.45
2022-10-28T12:38:18.256Z,5.38
2022-10-28T12:43:17.017Z,8.23
2022-10-28T12:48:18.265Z,4.95
2022-10-28T12:53:35.678Z,5.88
2022-10-28T12:58:34.336Z,5.05
2022-10-28T13:03:27.379Z,5.55
2022-10-28T13:09:20.303Z,5.05
2022-10-28T13:14:35.331Z,4.07
2022-10-28T13:19:45.704Z,6.03
2022-10-28T13:24:48.735Z,4.40
2022-10-28T13:29:44.074Z,6.18
2022-10-28T13:34:40.279Z,8.43
2022-10-28T13:39:46.251Z,5.43
2022-10-28T13:44:49.647Z,6.05
2022-10-28T13:50:10.977Z,6.85
2022-10-28T13:55:23.518Z,6.65
2022-10-28T14:00:37.646Z,8.63
2022-10-28T14:05:52.951Z,8.10
2022-10-28T14:11:01.520Z,5.45
2022-10-28T14:16:15.780Z,11.27
2022-10-28T14:21:09.099Z,10.80
2022-10-28T14:26:07.222Z,5.65
2022-10-28T14:31:24.659Z,8.90
2022-10-28T14:36:31.371Z,11.02
2022-10-28T14:41:44.138Z,10.30
2022-10-28T14:46:52.853Z,11.32
2022-10-28T14:51:46.791Z,12.60
2022-10-28T14:56:42.493Z,11.02
2022-10-28T15:01:56.753Z,11.43
2022-10-28T15:06:52.206Z,9.70
2022-10-28T15:11:49.891Z,8.68
2022-10-28T15:16:50.175Z,13.45
2022-10-28T15:21:43.754Z,19.88
2022-10-28T15:26:43.457Z,16.02
2022-10-28T15:32:08.902Z,19.90
2022-10-28T15:37:33.498Z,19.02
2022-10-28T15:43:14.644Z,16.10
2022-10-28T15:48:25.022Z,22.52
2022-10-28T15:53:46.765Z,19.25
2022-10-28T15:58:43.613Z,18.30
2022-10-28T16:03:47.806Z,21.42
2022-10-28T16:08:51.563Z,27.40
2022-10-28T16:13:49.500Z,16.50
2022-10-28T16:19:10.584Z,25.63
2022-10-28T16:24:07.612Z,18.33
2022-10-28T16:29:01.216Z,16.10
2022-10-28T16:33:59.608Z,18.48
2022-10-28T16:38:53.178Z,18.15
2022-10-28T16:43:50.506Z,14.20
2022-10-28T16:48:44.327Z,20.48
2022-10-28T16:53:47.497Z,21.00
2022-10-28T16:58:44.611Z,24.42
2022-10-28T17:04:05.416Z,17.60
2022-10-28T17:09:03.212Z,26.05
2022-10-28T17:13:59.956Z,31.60
2022-10-28T17:18:54.068Z,24.90
2022-10-28T17:23:51.130Z,29.80
2022-10-28T17:28:46.681Z,31.10
2022-10-28T17:33:40.268Z,28.77
2022-10-28T17:38:33.869Z,35.50
2022-10-28T17:44:30.917Z,30.63
2022-10-28T17:49:25.768Z,32.45
2022-10-28T17:54:19.451Z,38.08
2022-10-28T17:59:15.576Z,33.17
2022-10-28T18:04:28.302Z,32.08
2022-10-28T18:09:23.769Z,29.75
2022-10-28T18:14:25.251Z,35.30
2022-10-28T18:19:35.450Z,37.40
2022-10-28T18:24:34.629Z,38.05
2022-10-28T18:29:31.317Z,36.65
2022-10-28T18:40:35.135Z,30.35
2022-10-28T18:46:09.264Z,29.35
2022-10-28T18:51:21.255Z,25.23
2022-10-28T18:56:30.880Z,23.25
2022-10-28T19:01:31.320Z,22.20
2022-10-28T19:06:28.354Z,23.35
2022-10-28T19:11:22.466Z,25.65
2022-10-28T19:16:24.969Z,25.45
2022-10-28T19:21:21.469Z,30.85
2022-10-28T19:27:20.475Z,25.70
2022-10-28T19:32:44.051Z,25.98
2022-10-28T19:37:43.189Z,25.67
2022-10-28T19:42:46.010Z,24.60
2022-10-28T19:47:44.475Z,19.35
2022-10-28T19:52:41.321Z,19.50
2022-10-28T19:57:34.770Z,21.38
2022-10-28T20:02:45.264Z,17.65
2022-10-28T20:07:43.307Z,21.00
2022-10-28T20:12:36.866Z,21.30
2022-10-28T20:17:31.025Z,23.83
2022-10-28T20:22:36.558Z,20.65
2022-10-28T20:27:37.215Z,16.67
2022-10-28T20:32:30.860Z,12.82
2022-10-28T20:37:29.060Z,15.45
2022-10-28T20:42:22.744Z,15.82
2022-10-28T20:47:17.973Z,15.43
2022-10-28T20:52:16.787Z,17.00
2022-10-28T20:57:10.158Z,17.55
2022-10-28T21:02:04.660Z,16.92
2022-10-28T21:06:59.530Z,15.45
2022-10-28T21:11:55.812Z,15.10
2022-10-28T21:16:51.682Z,12.88
2022-10-28T21:21:45.171Z,11.98
2022-10-28T21:26:41.100Z,13.00
2022-10-28T21:31:37.597Z,11.50
2022-10-28T21:36:36.095Z,11.40
2022-10-28T21:41:29.449Z,11.48
2022-10-28T21:46:24.872Z,12.60
2022-10-28T21:51:19.055Z,13.18
2022-10-28T21:56:17.489Z,15.40
2022-10-28T22:01:17.014Z,12.30
2022-10-28T22:06:12.607Z,12.35
2022-10-28T22:11:08.352Z,12.25
2022-10-28T22:16:03.916Z,11.27
2022-10-28T22:20:59.920Z,13.95
2022-10-28T22:25:58.520Z,10.75
2022-10-28T22:30:51.866Z,11.10
2022-10-28T22:35:45.239Z,12.10
2022-10-28T22:40:38.492Z,13.38
2022-10-28T22:45:33.470Z,12.02
2022-10-28T22:50:27.033Z,9.63
2022-10-28T22:55:23.320Z,12.10
2022-10-28T23:05:12.105Z,11.07
2022-10-28T23:10:08.129Z,10.18
2022-10-28T23:15:01.543Z,9.90
2022-10-28T23:19:54.728Z,10.43
2022-10-28T23:24:49.534Z,11.80
2022-10-28T23:29:42.926Z,8.48
2022-10-28T23:34:38.476Z,9.25
2022-10-28T23:39:48.428Z,9.95
2022-10-28T23:44:46.442Z,9.40
2022-10-28T23:49:39.930Z,9.77
2022-10-28T23:54:33.337Z,8.77
2022-10-28T23:59:26.733Z,9.20
